Weather at Amsterdam Airport Schiphol

Public forecast

Using degrees Celsius for public forecast. Weather courtesy of forecast.io.

Current aviation weather report (METAR) for Amsterdam Airport Schiphol

Retrieved 2022/05/19 08:25 UTC (23 minutes ago):

EHAM 190825Z VRB03KT 9999 VCSH FEW014 FEW040CB 20/17 Q1016 TEMPO 4000 SHRA

Aviation forecast (TAF) for Amsterdam Airport Schiphol

Retrieved 2022/05/19 06:28 UTC (2 hours ago):

TAF EHAM 190442Z 1906/2012 18007KT CAVOK PROB40 TEMPO 1910/1914 28018G30KT 4000 SHRA TSRA SCT035 BKN050CB BECMG 1912/1915 29014KT PROB40 TEMPO 1912/1916 SCT008 BKN012 BECMG 1916/1919 VRB02KT PROB30 2000/2005 5000 MIFG BCFG BECMG 2004/2006 12005KT